Time;durP1;ratioP1;P1;durP2;ratioP2;P2;SDS_P1;SDS_P2;PMS_P1;PMS_P2;Temp;Humidity;BMP_temperature;BMP_pressure;BME280_temperature;BME280_humidity;BME280_pressure;Samples;Min_cycle;Max_cycle;Signal;HPM_P1;HPM_P2
2022/05/01 00:02:26;;;;;;;8.10;5.10;;;10.40;99.70;;;11.38;98.67;98695.44;5041405;28;20449;-86
2022/05/01 00:04:58;;;;;;;7.27;5.20;;;10.40;99.80;;;11.36;98.33;98688.72;5039316;28;20449;-86
2022/05/01 00:07:28;;;;;;;5.57;4.57;;;10.40;99.60;;;11.31;98.93;98688.44;5041527;28;20457;-86
2022/05/01 00:09:58;;;;;;;9.47;5.30;;;10.30;99.80;;;11.31;99.08;98683.22;5039568;28;21939;-86
2022/05/01 00:12:29;;;;;;;12.70;4.70;;;10.30;99.70;;;11.28;99.19;98683.56;5043307;28;20444;-85
2022/05/01 00:15:00;;;;;;;7.17;4.80;;;10.30;99.80;;;11.22;99.57;98684.25;5040218;28;20517;-87
2022/05/01 00:17:31;;;;;;;6.13;4.53;;;10.30;99.90;;;11.21;100.00;98683.44;5040667;28;20489;-86
2022/05/01 00:20:00;;;;;;;5.23;4.50;;;10.20;99.90;;;11.16;100.00;98680.53;5040810;28;20863;-86
2022/05/01 00:22:31;;;;;;;5.07;4.30;;;10.20;99.90;;;11.14;100.00;98686.94;5042476;28;20500;-86
2022/05/01 00:25:01;;;;;;;9.20;5.20;;;10.20;99.90;;;11.04;100.00;98687.16;5042775;28;20858;-86
2022/05/01 00:27:31;;;;;;;9.83;4.97;;;10.20;99.90;;;11.03;100.00;98686.34;5043921;28;20888;-85
2022/05/01 00:30:02;;;;;;;10.20;5.90;;;10.10;99.90;;;10.96;100.00;98682.00;5042990;28;20524;-86
2022/05/01 00:36:25;;;;;;;10.50;5.00;;;10.10;99.90;;;10.93;100.00;98679.72;5042400;28;20500;-86
2022/05/01 00:38:09;;;;;;;8.07;5.17;;;10.00;99.90;;;10.88;100.00;98677.63;5042174;28;20509;-85
2022/05/01 00:40:39;;;;;;;8.93;5.27;;;10.00;99.90;;;10.84;100.00;98675.50;5040007;28;20468;-85
2022/05/01 00:43:09;;;;;;;6.30;4.70;;;9.90;99.90;;;10.79;100.00;98680.47;5038118;28;20529;-86
2022/05/01 00:45:39;;;;;;;10.10;5.70;;;9.90;99.90;;;10.76;100.00;98678.97;5037596;28;20492;-86
2022/05/01 00:48:10;;;;;;;10.33;5.03;;;9.80;99.90;;;10.76;100.00;98678.19;5040623;28;20551;-86
2022/05/01 00:50:41;;;;;;;6.00;4.67;;;9.90;99.90;;;10.77;100.00;98677.19;5036858;28;20474;-85
2022/05/01 00:53:11;;;;;;;10.07;5.53;;;9.80;99.90;;;10.72;100.00;98667.25;5038105;28;20921;-87
2022/05/01 00:55:40;;;;;;;6.80;4.70;;;9.90;99.90;;;10.71;100.00;98675.25;5038081;28;20438;-87
2022/05/01 00:58:10;;;;;;;9.73;4.77;;;9.90;99.90;;;10.65;100.00;98662.88;5036934;28;20501;-87
2022/05/01 01:00:42;;;;;;;6.67;4.80;;;9.90;99.90;;;10.65;100.00;98662.88;5038523;28;20872;-86
2022/05/01 01:03:14;;;;;;;6.23;4.40;;;9.90;99.90;;;10.69;100.00;98656.31;5040346;28;20438;-86
2022/05/01 01:05:46;;;;;;;5.53;4.53;;;9.90;99.90;;;10.71;100.00;98649.09;5038210;28;20446;-85
2022/05/01 01:08:16;;;;;;;6.50;4.60;;;9.70;99.90;;;10.74;100.00;98651.38;5038224;28;21406;-86
2022/05/01 01:10:46;;;;;;;7.77;5.40;;;9.80;99.90;;;10.73;100.00;98652.34;5037804;28;20449;-85
2022/05/01 01:13:15;;;;;;;7.83;5.80;;;9.80;99.90;;;10.71;100.00;98654.34;5038888;28;20889;-86
2022/05/01 01:15:45;;;;;;;10.13;5.83;;;9.80;99.90;;;10.73;100.00;98654.97;5038473;28;20498;-86
2022/05/01 01:18:16;;;;;;;9.60;5.70;;;9.70;99.90;;;10.74;100.00;98648.75;5039154;28;20504;-87
2022/05/01 01:20:49;;;;;;;8.17;5.30;;;9.80;99.90;;;10.71;100.00;98643.88;5042683;28;20453;-86
2022/05/01 01:23:19;;;;;;;6.60;5.20;;;9.80;99.90;;;10.67;100.00;98642.59;5039176;28;20530;-87
2022/05/01 01:25:50;;;;;;;6.70;5.27;;;9.80;99.90;;;10.67;100.00;98638.19;5042953;28;20494;-86
2022/05/01 01:28:22;;;;;;;11.57;6.30;;;9.80;99.90;;;10.64;100.00;98640.31;5039928;28;20438;-87
2022/05/01 01:33:41;;;;;;;7.13;5.00;;;9.80;99.90;;;10.54;100.00;98643.97;5040373;28;20442;-86
2022/05/01 01:36:13;;;;;;;11.60;5.97;;;9.70;99.90;;;10.48;100.00;98655.09;5041653;28;20542;-86
2022/05/01 01:38:43;;;;;;;6.23;5.60;;;9.80;99.90;;;10.45;100.00;98646.78;5045214;28;20923;-86
2022/05/01 01:41:19;;;;;;;13.87;5.03;;;9.70;99.90;;;10.48;100.00;98655.09;5038749;28;20459;-86
2022/05/01 01:43:50;;;;;;;8.57;4.90;;;9.60;99.90;;;10.51;100.00;98652.19;5041852;28;20468;-85
2022/05/01 01:46:21;;;;;;;7.10;5.30;;;9.60;99.90;;;10.53;100.00;98650.19;5039458;28;20478;-85
2022/05/01 01:48:51;;;;;;;11.33;7.13;;;9.60;99.90;;;10.48;100.00;98644.66;5042212;28;20520;-86
2022/05/01 01:51:23;;;;;;;9.93;7.03;;;9.70;99.90;;;10.46;100.00;98644.00;5038168;28;20560;-86
2022/05/01 01:53:53;;;;;;;10.30;6.10;;;9.70;99.90;;;10.44;100.00;98648.63;5037046;28;20540;-86
2022/05/01 01:56:24;;;;;;;6.67;5.30;;;9.70;99.90;;;10.47;100.00;98656.13;5038811;28;20464;-86
2022/05/01 01:58:54;;;;;;;10.47;6.57;;;9.60;99.90;;;10.46;100.00;98651.84;5039558;28;21062;-87
2022/05/01 02:01:23;;;;;;;7.10;5.50;;;9.60;99.90;;;10.48;100.00;98651.69;5038052;28;20478;-86
2022/05/01 02:03:53;;;;;;;8.30;5.50;;;9.50;99.90;;;10.46;100.00;98651.84;5039101;28;20531;-86
2022/05/01 02:06:25;;;;;;;16.03;6.70;;;9.60;99.90;;;10.47;100.00;98648.28;5039868;28;20466;-86
2022/05/01 02:08:58;;;;;;;11.10;6.13;;;9.70;99.90;;;10.46;100.00;98651.84;5038144;28;20524;-86
2022/05/01 02:11:27;;;;;;;10.07;6.37;;;9.70;99.90;;;10.45;100.00;98650.22;5036650;28;20453;-87
2022/05/01 02:13:56;;;;;;;7.93;5.93;;;9.70;99.90;;;10.41;100.00;98635.84;5041716;28;20458;-87
2022/05/01 02:16:27;;;;;;;7.57;5.80;;;9.70;99.90;;;10.42;100.00;98641.91;5038623;28;20556;-86
2022/05/01 02:18:57;;;;;;;6.93;4.83;;;9.60;99.90;;;10.44;100.00;98635.53;5035635;28;21015;-87
2022/05/01 02:21:37;;;;;;;9.97;6.87;;;9.50;99.90;;;10.43;100.00;98638.31;5038154;28;20488;-86
2022/05/01 02:24:09;;;;;;;7.33;5.43;;;9.60;99.90;;;10.43;100.00;98639.13;5040019;28;20460;-86
2022/05/01 02:26:40;;;;;;;11.77;6.30;;;9.50;99.90;;;10.37;100.00;98639.81;5039163;28;20921;-86
2022/05/01 02:29:11;;;;;;;7.90;6.00;;;9.50;99.90;;;10.39;100.00;98639.63;5039532;28;20477;-86
2022/05/01 02:31:43;;;;;;;8.27;5.63;;;9.60;99.90;;;10.41;100.00;98633.25;5037403;28;20487;-86
2022/05/01 02:34:14;;;;;;;10.83;6.23;;;9.60;99.90;;;10.38;100.00;98632.78;5038882;28;20944;-86
2022/05/01 02:36:46;;;;;;;7.53;5.70;;;9.60;99.90;;;10.37;100.00;98631.16;5038144;28;20439;-87
2022/05/01 02:39:17;;;;;;;10.03;6.07;;;9.60;99.90;;;10.31;100.00;98629.25;5040307;28;20500;-86
2022/05/01 02:41:46;;;;;;;8.87;6.30;;;9.50;99.90;;;10.24;100.00;98634.31;5038578;28;20457;-86
2022/05/01 02:44:17;;;;;;;11.20;7.20;;;9.50;99.90;;;10.29;100.00;98639.84;5040267;28;20562;-86
2022/05/01 02:46:48;;;;;;;11.90;6.57;;;9.60;99.90;;;10.31;100.00;98634.47;5040751;28;20944;-85
2022/05/01 02:49:21;;;;;;;14.73;5.97;;;9.60;99.90;;;10.31;100.00;98629.25;5039891;28;20956;-86
2022/05/01 02:51:53;;;;;;;7.93;6.17;;;9.50;99.90;;;10.33;100.00;98630.69;5038625;28;20843;-87
2022/05/01 02:54:24;;;;;;;9.33;6.30;;;9.40;99.90;;;10.32;100.00;98615.97;5039066;28;20507;-87
2022/05/01 02:56:56;;;;;;;11.77;6.80;;;9.40;99.90;;;10.34;100.00;98621.06;5045476;28;20442;-86
2022/05/01 02:59:26;;;;;;;9.60;7.40;;;9.40;99.90;;;10.33;100.00;98617.63;5042479;28;20999;-85
2022/05/01 03:01:57;;;;;;;13.87;7.40;;;9.40;99.90;;;10.33;100.00;98624.66;5038985;28;20457;-87
2022/05/01 03:04:27;;;;;;;9.77;6.90;;;9.50;99.90;;;10.29;100.00;98623.34;5042739;28;20939;-86
2022/05/01 03:07:00;;;;;;;11.10;7.13;;;9.40;99.90;;;10.26;100.00;98621.91;5044860;28;20449;-87
2022/05/01 03:09:30;;;;;;;17.27;6.93;;;9.50;99.90;;;10.26;100.00;98613.25;5044006;28;20484;-86
2022/05/01 03:12:00;;;;;;;9.67;6.63;;;9.50;99.90;;;10.30;100.00;98619.75;5042929;28;20536;-86
2022/05/01 03:14:30;;;;;;;16.27;7.03;;;9.50;99.90;;;10.32;100.00;98618.59;5042050;28;20434;-85
2022/05/01 03:17:01;;;;;;;9.77;6.43;;;9.40;99.90;;;10.34;100.00;98626.28;5042692;28;20464;-86
2022/05/01 03:22:24;;;;;;;10.83;7.37;;;9.50;99.90;;;10.30;100.00;98619.75;5023965;28;20510;-86
2022/05/01 03:24:55;;;;;;;20.23;7.00;;;9.40;99.90;;;10.28;100.00;98609.47;5042466;28;20456;-87
2022/05/01 03:27:24;;;;;;;9.70;6.30;;;9.50;99.90;;;10.28;100.00;98612.06;5042597;28;20446;-86
2022/05/01 03:32:46;;;;;;;9.67;6.57;;;9.50;99.90;;;10.24;100.00;98610.00;5043677;28;20438;-86
2022/05/01 03:35:17;;;;;;;7.70;5.50;;;9.40;99.90;;;10.28;100.00;98606.03;5042577;28;20479;-86
2022/05/01 03:37:48;;;;;;;12.40;6.90;;;9.40;99.90;;;10.31;100.00;98603.09;5043535;28;21396;-87
2022/05/01 03:40:21;;;;;;;11.60;6.83;;;9.40;99.90;;;10.32;100.00;98604.72;5043504;28;20450;-86
2022/05/01 03:42:54;;;;;;;7.80;6.00;;;9.40;99.90;;;10.29;100.00;98612.91;5042464;28;20537;-86
2022/05/01 03:45:24;;;;;;;15.47;6.23;;;9.40;99.90;;;10.25;100.00;98611.59;5041260;28;20489;-86
2022/05/01 03:47:55;;;;;;;10.13;6.73;;;9.40;99.90;;;10.26;100.00;98610.63;5041362;28;20458;-86
2022/05/01 03:50:26;;;;;;;8.70;5.83;;;9.40;99.90;;;10.26;100.00;98613.25;5043139;28;21081;-86
2022/05/01 03:52:59;;;;;;;8.83;6.53;;;9.40;99.90;;;10.26;100.00;98616.66;5038840;28;20457;-86
2022/05/01 03:55:30;;;;;;;8.40;5.87;;;9.30;99.90;;;10.27;100.00;98610.47;5041586;28;20434;-87
2022/05/01 03:58:01;;;;;;;9.70;5.83;;;9.30;99.90;;;10.27;100.00;98613.09;5042870;28;20441;-86
2022/05/01 04:00:32;;;;;;;10.23;5.50;;;9.40;99.90;;;10.28;100.00;98612.06;5042411;28;20556;-86
2022/05/01 04:03:03;;;;;;;8.57;5.77;;;9.40;99.90;;;10.29;100.00;98612.91;5040838;28;20468;-86
2022/05/01 04:05:34;;;;;;;13.10;5.93;;;9.40;99.90;;;10.28;100.00;98606.03;5041573;28;20516;-86
2022/05/01 04:08:08;;;;;;;12.23;5.80;;;9.40;99.90;;;10.25;100.00;98607.19;5038284;28;20451;-86
2022/05/01 04:10:38;;;;;;;11.97;5.93;;;9.40;99.90;;;10.25;100.00;98607.19;5041966;28;20523;-86
2022/05/01 04:13:08;;;;;;;9.23;5.77;;;9.40;99.90;;;10.27;100.00;98609.66;5041985;28;20498;-86
2022/05/01 04:15:40;;;;;;;8.13;5.70;;;9.30;99.90;;;10.28;100.00;98612.06;5042109;28;20564;-86
2022/05/01 04:18:13;;;;;;;7.40;5.80;;;9.30;99.90;;;10.27;100.00;98609.66;5042636;28;20467;-86
2022/05/01 04:20:46;;;;;;;11.60;6.27;;;9.30;99.90;;;10.29;100.00;98611.09;5046705;28;20936;-85
2022/05/01 04:23:19;;;;;;;11.60;6.70;;;9.40;99.90;;;10.29;100.00;98611.09;5040358;28;20462;-86
2022/05/01 04:25:50;;;;;;;7.40;5.80;;;9.40;99.90;;;10.25;100.00;98607.19;5042415;28;20453;-86
2022/05/01 04:28:20;;;;;;;11.90;7.00;;;9.40;99.90;;;10.25;100.00;98607.19;5041622;28;20860;-86
2022/05/01 04:30:50;;;;;;;14.27;7.03;;;9.40;99.90;;;10.26;100.00;98611.44;5040189;28;20457;-85
2022/05/01 04:33:20;;;;;;;9.70;5.83;;;9.40;99.90;;;10.24;100.00;98602.94;5039398;28;20485;-85
2022/05/01 04:35:53;;;;;;;10.40;5.80;;;9.30;99.90;;;10.27;100.00;98600.00;5042008;28;20482;-85
2022/05/01 04:38:29;;;;;;;9.07;6.83;;;9.30;99.90;;;10.29;100.00;98608.47;5040819;28;20450;-86
2022/05/01 04:41:04;;;;;;;8.53;6.70;;;9.30;99.90;;;10.32;100.00;98612.56;5044072;28;20448;-86
2022/05/01 04:43:40;;;;;;;10.73;6.60;;;9.30;99.90;;;10.29;100.00;98600.66;5040546;28;20456;-86
2022/05/01 04:46:11;;;;;;;11.80;6.70;;;9.40;99.90;;;10.26;100.00;98608.00;5041391;28;20454;-86
2022/05/01 04:48:42;;;;;;;13.90;6.43;;;9.40;99.90;;;10.22;100.00;98604.94;5047925;28;21232;-86
2022/05/01 04:51:13;;;;;;;9.20;6.80;;;9.50;99.90;;;10.25;100.00;98611.59;5036789;28;20489;-87
2022/05/01 04:53:47;;;;;;;9.77;6.43;;;9.40;99.90;;;10.25;100.00;98612.41;5039530;28;20466;-86
2022/05/01 04:59:25;;;;;;;14.47;7.20;;;9.50;99.90;;;10.32;100.00;98620.38;5040233;28;20610;-86
2022/05/01 05:01:58;;;;;;;16.83;6.80;;;9.40;99.90;;;10.34;100.00;98616.66;5048505;28;20471;-86
2022/05/01 05:04:33;;;;;;;9.13;6.07;;;9.40;99.90;;;10.34;100.00;98626.28;5038888;28;20464;-86
2022/05/01 05:07:04;;;;;;;18.17;8.73;;;9.50;99.90;;;10.36;100.00;98619.06;5039133;28;20891;-87
2022/05/01 05:12:27;;;;;;;16.00;9.70;;;9.40;99.90;;;10.37;100.00;98605.03;5039266;28;20461;-86
2022/05/01 05:14:59;;;;;;;13.00;8.23;;;9.50;99.90;;;10.39;100.00;98613.50;5036570;28;20565;-86
2022/05/01 05:17:31;;;;;;;17.63;8.53;;;9.60;99.90;;;10.37;100.00;98616.28;5040174;28;20491;-87
2022/05/01 05:20:05;;;;;;;17.17;8.50;;;9.50;99.90;;;10.37;100.00;98613.69;5039441;28;20539;-85
2022/05/01 05:22:38;;;;;;;21.37;8.87;;;9.60;99.90;;;10.37;100.00;98611.06;5037965;28;20482;-85
2022/05/01 05:25:15;;;;;;;11.53;7.73;;;9.60;99.90;;;10.36;100.00;98609.44;5040150;28;20507;-86
2022/05/01 05:27:46;;;;;;;16.90;8.13;;;9.60;99.90;;;10.35;100.00;98612.19;5042258;28;20454;-86
2022/05/01 05:30:17;;;;;;;13.30;8.50;;;9.70;99.90;;;10.34;100.00;98611.41;5038328;28;20465;-75
2022/05/01 05:32:47;;;;;;;12.03;8.30;;;9.60;99.90;;;10.35;100.00;98610.41;5036942;28;20457;-75
2022/05/01 05:35:18;;;;;;;17.33;7.90;;;9.60;99.90;;;10.36;100.00;98619.88;5036764;28;20472;-75
2022/05/01 05:37:49;;;;;;;24.23;8.87;;;9.70;99.90;;;10.37;100.00;98621.53;5037204;28;20960;-84
2022/05/01 05:40:24;;;;;;;17.90;8.50;;;9.70;99.90;;;10.34;100.00;98619.25;5034239;28;20485;-75
2022/05/01 05:42:54;;;;;;;16.10;8.90;;;9.70;99.90;;;10.36;100.00;98614.66;5035560;28;20461;-76
2022/05/01 05:45:24;;;;;;;12.10;7.70;;;9.60;99.90;;;10.41;100.00;98619.38;5035123;28;20497;-75
2022/05/01 05:47:56;;;;;;;19.70;9.57;;;9.70;99.90;;;10.44;100.00;98622.47;5039870;28;20504;-76
2022/05/01 05:50:26;;;;;;;18.20;7.90;;;9.70;99.90;;;10.41;100.00;98624.63;5038048;28;20990;-75
2022/05/01 05:52:57;;;;;;;11.67;7.97;;;9.70;99.90;;;10.44;100.00;98612.00;5038347;28;20450;-75
2022/05/01 05:55:33;;;;;;;13.07;7.63;;;9.80;99.90;;;10.45;100.00;98624.06;5039725;28;20454;-76
2022/05/01 05:58:03;;;;;;;12.20;7.67;;;9.70;99.90;;;10.50;100.00;98626.19;5038999;28;20544;-76
2022/05/01 06:00:34;;;;;;;13.73;7.90;;;9.70;99.90;;;10.55;100.00;98624.66;5036157;28;21259;-75
2022/05/01 06:03:06;;;;;;;9.93;7.47;;;9.70;99.90;;;10.57;100.00;98625.31;5036474;28;20461;-76
2022/05/01 06:05:37;;;;;;;14.00;8.93;;;9.70;99.90;;;10.62;100.00;98626.63;5037327;28;20462;-76
2022/05/01 06:08:08;;;;;;;12.53;7.60;;;9.70;99.90;;;10.66;100.00;98631.31;5039769;28;20470;-76
2022/05/01 06:10:39;;;;;;;13.13;8.10;;;9.80;99.90;;;10.70;100.00;98631.78;5034388;28;20465;-76
2022/05/01 06:13:09;;;;;;;15.20;7.73;;;9.90;99.90;;;10.70;100.00;98631.78;5036763;28;20473;-76
2022/05/01 06:15:38;;;;;;;16.23;9.17;;;10.00;99.90;;;10.72;100.00;98635.06;5035186;28;20453;-76
2022/05/01 06:18:10;;;;;;;12.73;7.90;;;10.00;99.90;;;10.73;100.00;98637.47;5036713;28;20469;-76
2022/05/01 06:20:40;;;;;;;17.60;9.10;;;10.00;99.80;;;10.74;100.00;98633.88;5036086;28;20485;-76
2022/05/01 06:23:10;;;;;;;12.33;8.60;;;10.00;99.90;;;10.75;100.00;98635.53;5036076;28;20460;-76
2022/05/01 06:25:43;;;;;;;43.23;22.40;;;9.90;99.90;;;10.76;100.00;98636.34;5039879;28;20440;-76
2022/05/01 06:28:13;;;;;;;12.47;8.60;;;9.90;99.90;;;10.76;100.00;98637.13;5035004;28;20865;-76
2022/05/01 06:30:44;;;;;;;17.10;8.27;;;10.00;99.80;;;10.75;100.00;98634.69;5035813;28;20520;-76
2022/05/01 06:33:17;;;;;;;14.50;8.63;;;10.10;99.60;;;10.74;100.00;98643.53;5039928;28;20464;-76
2022/05/01 06:35:51;;;;;;;13.80;7.23;;;10.00;99.80;;;10.71;100.00;98636.84;5041362;28;21455;-75
2022/05/01 06:38:20;;;;;;;11.60;7.17;;;9.90;99.90;;;10.77;99.96;98637.94;5041644;28;20508;-76
2022/05/01 06:40:51;;;;;;;11.90;8.10;;;10.00;99.70;;;10.79;99.71;98644.66;5041500;28;20493;-76
2022/05/01 06:43:21;;;;;;;14.80;7.27;;;10.00;99.50;;;10.77;99.71;98640.56;5041295;28;20457;-76
2022/05/01 06:45:50;;;;;;;11.70;8.30;;;9.90;99.90;;;10.80;99.38;98642.81;5041068;28;20465;-76
2022/05/01 06:48:22;;;;;;;13.30;7.50;;;10.00;99.60;;;10.86;99.59;98639.53;5041000;28;20480;-76
2022/05/01 06:50:52;;;;;;;11.30;7.50;;;10.10;99.70;;;10.89;100.00;98632.16;5041925;28;20564;-76
2022/05/01 06:53:22;;;;;;;17.53;9.00;;;10.10;99.90;;;10.94;100.00;98629.00;5041149;28;20462;-76
2022/05/01 06:55:55;;;;;;;9.83;7.20;;;10.10;99.80;;;10.99;100.00;98637.16;5042990;28;20524;-76
2022/05/01 06:58:25;;;;;;;17.53;8.23;;;10.20;99.90;;;11.03;99.89;98627.97;5038455;28;20465;-76
2022/05/01 07:00:55;;;;;;;10.37;7.93;;;10.20;99.70;;;11.01;98.96;98633.38;5041594;28;20505;-76
2022/05/01 07:03:25;;;;;;;16.80;8.73;;;10.20;99.70;;;11.09;98.76;98627.25;5038384;28;20487;-75
2022/05/01 07:05:56;;;;;;;98.00;55.33;;;10.20;99.70;;;11.14;99.46;98635.41;5039709;28;20474;-77
2022/05/01 07:08:26;;;;;;;16.33;9.87;;;10.30;99.90;;;11.18;99.17;98631.44;5038568;28;20456;-76
2022/05/01 07:10:57;;;;;;;14.03;8.90;;;10.30;99.70;;;11.21;98.89;98633.69;5039641;28;20469;-76
2022/05/01 07:13:28;;;;;;;13.83;8.73;;;10.30;99.50;;;11.27;98.32;98630.38;5036572;28;21079;-75
2022/05/01 07:15:59;;;;;;;18.37;9.00;;;10.40;99.60;;;11.31;98.05;98631.66;5041485;28;20457;-76
2022/05/01 07:18:30;;;;;;;9.40;7.20;;;10.50;99.70;;;11.33;97.77;98629.66;5038847;28;21103;-76
2022/05/01 07:21:00;;;;;;;11.40;7.40;;;10.50;99.40;;;11.38;98.28;98627.34;5037662;28;20995;-75
2022/05/01 07:23:30;;;;;;;13.30;7.47;;;10.50;99.70;;;11.35;97.16;98632.13;5037831;28;20993;-76
2022/05/01 07:26:03;;;;;;;16.57;7.70;;;10.50;99.10;;;11.36;96.36;98626.69;5039092;28;20472;-76
2022/05/01 07:28:32;;;;;;;18.20;8.30;;;10.50;99.10;;;11.36;96.18;98629.31;5035804;28;20472;-76
2022/05/01 07:31:04;;;;;;;10.97;7.33;;;10.60;99.00;;;11.41;96.16;98631.41;5039005;28;20464;-76
2022/05/01 07:33:34;;;;;;;10.37;7.17;;;10.60;99.10;;;11.41;95.65;98628.78;5037259;28;20462;-76
2022/05/01 07:36:04;;;;;;;17.97;8.20;;;10.60;99.10;;;11.44;95.94;98631.88;5042022;28;20460;-76
2022/05/01 07:38:34;;;;;;;84.83;51.27;;;10.70;99.10;;;11.44;95.66;98621.38;5038284;28;20468;-82
2022/05/01 07:41:07;;;;;;;16.37;10.40;;;10.60;99.00;;;11.49;95.33;98621.66;5040060;28;20528;-76
2022/05/01 07:43:38;;;;;;;19.97;7.90;;;10.70;99.00;;;11.54;95.08;98626.38;5036085;28;20469;-75
2022/05/01 07:46:07;;;;;;;13.90;7.37;;;10.80;99.00;;;11.58;95.83;98625.03;5038367;28;20473;-76
2022/05/01 07:48:38;;;;;;;10.97;7.43;;;10.80;99.30;;;11.63;95.42;98625.28;5038477;28;20469;-76
2022/05/01 07:51:08;;;;;;;12.03;7.67;;;10.90;99.10;;;11.71;95.43;98624.41;5038595;28;20571;-76
2022/05/01 07:53:39;;;;;;;13.70;7.57;;;11.00;99.40;;;11.74;95.55;98629.31;5038434;28;20825;-76
2022/05/01 07:56:09;;;;;;;15.27;7.93;;;11.00;99.20;;;11.80;95.93;98633.84;5038111;28;20487;-76
2022/05/01 07:58:39;;;;;;;12.03;7.77;;;11.10;99.10;;;11.79;95.50;98626.97;5039516;28;20469;-76
2022/05/01 08:01:08;;;;;;;14.33;7.40;;;11.00;98.90;;;11.78;94.91;98630.56;5036463;28;20490;-76
2022/05/01 08:06:27;;;;;;;76.93;45.63;;;11.00;98.90;;;11.85;93.61;98634.09;5041904;28;20555;-83
2022/05/01 08:08:56;;;;;;;11.50;7.50;;;11.00;98.60;;;11.77;91.88;98626.31;5038708;28;20505;-76
2022/05/01 08:11:28;;;;;;;14.47;7.70;;;11.00;98.20;;;11.78;92.80;98627.94;5036820;28;20468;-76
2022/05/01 08:13:57;;;;;;;15.93;7.40;;;11.00;98.50;;;11.82;93.14;98629.22;5038552;28;21002;-76
2022/05/01 08:16:28;;;;;;;13.07;8.07;;;11.10;98.70;;;11.86;93.22;98640.97;5037098;28;20479;-77
2022/05/01 08:21:47;;;;;;;11.60;7.80;;;11.00;98.50;;;11.77;93.04;98637.63;5038480;28;20531;-76
2022/05/01 08:24:17;;;;;;;10.23;7.37;;;10.90;98.60;;;11.80;93.27;98641.72;5037389;28;20456;-76
2022/05/01 08:26:48;;;;;;;11.80;7.70;;;11.00;98.70;;;11.79;93.30;98632.22;5035720;28;21297;-76
2022/05/01 08:29:19;;;;;;;13.20;7.40;;;11.00;98.70;;;11.84;93.53;98635.09;5037311;28;20515;-77
2022/05/01 08:31:50;;;;;;;14.43;7.70;;;11.00;98.90;;;11.90;94.01;98637.00;5036702;28;20468;-75
2022/05/01 08:34:20;;;;;;;14.23;8.07;;;11.10;99.00;;;11.96;94.55;98636.28;5038851;28;20505;-85
2022/05/01 08:36:50;;;;;;;22.93;11.10;;;11.20;99.50;;;11.99;94.89;98628.03;5038414;28;20482;-76
2022/05/01 08:39:20;;;;;;;11.77;8.07;;;11.20;99.00;;;12.01;94.45;98634.72;5038456;28;20468;-76
2022/05/01 08:41:51;;;;;;;10.37;6.27;;;11.30;98.90;;;11.99;94.58;98634.09;5040036;28;20995;-76
2022/05/01 08:44:36;;;;;;;13.37;7.30;;;11.20;98.90;;;11.99;94.76;98628.88;5037642;28;20480;-76
2022/05/01 08:47:24;;;;;;;11.20;6.00;;;11.30;98.90;;;12.03;94.27;98626.69;5038922;28;20449;-76
2022/05/01 08:49:59;;;;;;;10.43;7.00;;;11.30;98.90;;;12.05;93.45;98630.75;5041923;28;20544;-76
2022/05/01 08:52:29;;;;;;;7.70;6.30;;;11.40;98.80;;;12.13;93.08;98623.78;5039478;28;20469;-76
2022/05/01 08:55:01;;;;;;;15.10;6.90;;;11.40;98.80;;;12.21;94.70;98628.94;5038567;28;20497;-76
2022/05/01 08:57:33;;;;;;;11.50;6.40;;;11.40;99.20;;;12.25;93.79;98630.22;5039705;28;20468;-76
2022/05/01 09:00:07;;;;;;;11.10;6.70;;;11.50;98.90;;;12.30;93.59;98643.56;5039750;28;20536;-76
2022/05/01 09:02:37;;;;;;;11.70;6.53;;;11.50;98.80;;;12.36;93.92;98638.41;5038230;28;20548;-76
2022/05/01 09:05:11;;;;;;;10.07;6.90;;;11.50;99.10;;;12.43;93.09;98633.22;5038264;28;20449;-76
2022/05/01 09:07:41;;;;;;;11.10;6.97;;;11.70;98.90;;;12.51;92.59;98635.75;5037782;28;20995;-76
2022/05/01 09:10:11;;;;;;;11.33;7.60;;;11.80;98.70;;;12.60;92.70;98639.88;5038407;28;20454;-77
2022/05/01 09:12:52;;;;;;;14.50;7.03;;;12.00;98.60;;;12.60;92.72;98642.50;5038717;28;20838;-76
2022/05/01 09:15:34;;;;;;;8.87;6.70;;;11.90;98.60;;;12.58;90.74;98637.47;5037581;28;20797;-76
2022/05/01 09:18:08;;;;;;;9.50;6.27;;;12.00;98.20;;;12.59;91.34;98625.16;5038687;28;20935;-76
2022/05/01 09:20:58;;;;;;;9.17;6.63;;;12.00;98.20;;;12.70;91.46;98631.72;5036918;28;20438;-76
2022/05/01 09:23:37;;;;;;;9.10;6.20;;;12.10;98.40;;;12.71;90.68;98633.34;5037452;28;20512;-77
2022/05/01 09:26:09;;;;;;;9.87;6.10;;;12.20;98.20;;;12.75;90.71;98631.97;5037615;28;20458;-76
2022/05/01 09:28:50;;;;;;;10.13;7.77;;;12.20;98.20;;;12.80;90.74;98634.88;5037217;28;20453;-76
2022/05/01 09:32:10;;;;;;;11.53;7.23;;;12.20;98.20;;;12.89;90.27;98634.56;5037879;28;20470;-76
2022/05/01 09:34:43;;;;;;;11.13;6.50;;;12.40;98.00;;;12.93;89.90;98624.50;5036828;28;20540;-76
2022/05/01 09:37:20;;;;;;;8.50;6.10;;;12.30;98.00;;;13.05;90.44;98628.25;5037941;28;20516;-76
2022/05/01 09:39:50;;;;;;;12.73;7.17;;;12.50;98.30;;;13.08;90.10;98625.25;5039037;28;20458;-77
2022/05/01 09:42:25;;;;;;;10.80;6.83;;;12.50;98.10;;;13.17;89.19;98633.81;5037665;28;20492;-77
2022/05/01 09:45:13;;;;;;;12.67;7.53;;;12.60;97.90;;;13.27;89.40;98615.94;5037831;28;20507;-77
2022/05/01 09:47:44;;;;;;;10.47;6.20;;;12.60;98.10;;;13.32;89.77;98627.50;5038167;28;20488;-77
2022/05/01 09:50:16;;;;;;;10.07;7.00;;;12.70;98.20;;;13.33;89.10;98623.84;5037920;28;21037;-76
2022/05/01 09:53:01;;;;;;;12.63;7.30;;;12.70;98.10;;;13.40;88.66;98627.34;5039101;28;20775;-76
2022/05/01 09:55:31;;;;;;;12.73;6.87;;;12.70;97.90;;;13.48;89.95;98621.97;5036874;28;20465;-76
2022/05/01 09:58:12;;;;;;;13.87;7.50;;;12.80;98.50;;;13.57;89.59;98622.66;5039303;28;20484;-76
2022/05/01 10:00:46;;;;;;;12.07;7.00;;;12.90;98.30;;;13.53;88.77;98624.84;5039817;28;20453;-76
2022/05/01 10:03:24;;;;;;;15.67;7.60;;;12.80;98.10;;;13.66;89.35;98625.94;5040376;28;20851;-76
2022/05/01 10:05:57;;;;;;;13.10;6.73;;;12.90;98.30;;;13.79;88.70;98626.00;5036837;28;20465;-76
2022/05/01 10:08:27;;;;;;;11.63;6.93;;;13.00;97.90;;;13.83;87.52;98625.44;5038498;28;20870;-76
2022/05/01 10:10:59;;;;;;;11.00;8.07;;;13.20;97.70;;;13.89;86.91;98622.03;5036738;28;20458;-76
2022/05/01 10:13:29;;;;;;;11.63;7.10;;;13.20;97.50;;;13.99;87.05;98605.88;5038001;28;20536;-76
2022/05/01 10:16:11;;;;;;;12.07;7.90;;;13.30;97.80;;;13.96;86.31;98616.78;5036673;28;20506;-76
2022/05/01 10:18:48;;;;;;;8.60;6.80;;;13.30;97.50;;;13.96;86.17;98607.09;5036547;28;20469;-76
2022/05/01 10:21:39;;;;;;;10.73;7.43;;;13.30;97.50;;;14.03;86.52;98602.69;5037257;28;20561;-76
2022/05/01 10:24:08;;;;;;;13.40;6.67;;;13.40;97.70;;;14.04;86.10;98608.75;5038180;28;20460;-76
2022/05/01 10:26:47;;;;;;;9.37;6.70;;;13.40;97.40;;;14.07;85.72;98601.28;5037405;28;21061;-76
2022/05/01 10:33:08;;;;;;;12.53;7.10;;;13.60;97.50;;;14.32;85.69;98601.59;5038174;28;20449;-76
2022/05/01 10:36:46;;;;;;;14.07;6.73;;;13.70;97.40;;;14.44;85.41;98599.22;5037758;28;20471;-76
2022/05/01 10:39:17;;;;;;;12.93;7.70;;;13.70;97.60;;;14.49;84.12;98592.38;4970071;28;20525;-76
2022/05/01 10:41:47;;;;;;;12.27;6.47;;;13.90;97.10;;;14.48;83.62;98590.75;4974869;28;20495;-76
2022/05/01 10:44:34;;;;;;;12.90;7.57;;;13.90;96.90;;;14.58;85.14;98585.91;5014346;28;20887;-76
2022/05/01 10:47:12;;;;;;;12.37;7.70;;;13.90;97.90;;;14.53;83.12;98585.72;5037355;28;20433;-76
2022/05/01 10:49:45;;;;;;;14.10;7.50;;;14.00;96.90;;;14.65;83.90;98582.50;5041397;28;20486;-76
2022/05/01 10:53:03;;;;;;;12.70;7.70;;;14.00;97.30;;;14.64;82.48;98580.88;5036272;28;20455;-76
2022/05/01 10:55:44;;;;;;;15.00;7.97;;;14.10;96.70;;;14.68;82.95;98576.84;5039328;28;20484;-76
2022/05/01 10:58:23;;;;;;;15.60;7.70;;;14.10;97.00;;;14.75;83.84;98577.66;5039834;28;20450;-76
2022/05/01 11:00:54;;;;;;;15.23;6.90;;;14.10;97.30;;;14.84;82.95;98571.19;5040717;28;20499;-75
2022/05/01 11:03:27;;;;;;;11.63;7.20;;;14.20;96.90;;;14.83;81.63;98572.19;5036544;28;20522;-76
2022/05/01 11:06:10;;;;;;;15.47;7.67;;;14.20;96.50;;;14.88;82.14;98562.69;5035742;28;20473;-76